Time;durP1;ratioP1;P1;durP2;ratioP2;P2;SDS_P1;SDS_P2;PMS_P1;PMS_P2;Temp;Humidity;BMP_temperature;BMP_pressure;BME280_temperature;BME280_humidity;BME280_pressure;Samples;Min_cycle;Max_cycle;Signal;HPM_P1;HPM_P2
2023/05/23 00:01:38;;;;;;;11.13;6.93;;;24.30;52.60;;;;;;5066342;28;46407;-71
2023/05/23 00:04:05;;;;;;;8.13;6.47;;;24.30;52.60;;;;;;5066588;28;45327;-71
2023/05/23 00:06:33;;;;;;;10.00;6.85;;;24.20;52.50;;;;;;5066697;28;45411;-70
2023/05/23 00:08:59;;;;;;;8.27;6.47;;;24.20;52.50;;;;;;5067020;28;45517;-71
2023/05/23 00:11:27;;;;;;;9.02;6.22;;;24.20;52.60;;;;;;5066503;28;45249;-71
2023/05/23 00:13:54;;;;;;;9.00;6.22;;;24.20;52.60;;;;;;5066361;28;45342;-69
2023/05/23 00:16:21;;;;;;;7.65;6.80;;;24.20;52.60;;;;;;5066571;28;45467;-71
2023/05/23 00:18:50;;;;;;;10.13;6.57;;;24.20;52.60;;;;;;5066626;28;45542;-70
2023/05/23 00:21:17;;;;;;;9.27;6.82;;;24.20;52.70;;;;;;5066342;28;45335;-71
2023/05/23 00:23:44;;;;;;;9.73;7.38;;;24.20;52.70;;;;;;5066296;28;45259;-70
2023/05/23 00:26:11;;;;;;;9.05;6.65;;;24.20;52.70;;;;;;5066352;28;45417;-70
2023/05/23 00:28:38;;;;;;;9.05;6.75;;;24.20;52.70;;;;;;5066714;28;45344;-70
2023/05/23 00:31:05;;;;;;;7.20;6.32;;;24.20;52.80;;;;;;5066363;28;46367;-71
2023/05/23 00:33:32;;;;;;;8.88;6.88;;;24.10;52.80;;;;;;5066281;28;45263;-70
2023/05/23 00:36:00;;;;;;;9.90;7.20;;;24.10;52.80;;;;;;5066123;28;45214;-71
2023/05/23 00:38:27;;;;;;;8.95;6.43;;;24.10;52.80;;;;;;5066337;28;45396;-68
2023/05/23 00:40:54;;;;;;;9.32;6.85;;;24.10;52.80;;;;;;5065847;28;47545;-70
2023/05/23 00:43:21;;;;;;;8.93;6.30;;;24.10;52.90;;;;;;5066076;28;45395;-71
2023/05/23 00:45:48;;;;;;;9.40;6.50;;;24.00;52.90;;;;;;5065992;28;45276;-71
2023/05/23 00:48:15;;;;;;;10.07;7.13;;;24.00;52.80;;;;;;5066369;28;45566;-70
2023/05/23 00:50:42;;;;;;;7.35;6.55;;;24.00;52.90;;;;;;5065823;28;45455;-70
2023/05/23 00:53:10;;;;;;;9.02;6.50;;;24.00;52.90;;;;;;5065811;28;45670;-70
2023/05/23 00:55:38;;;;;;;7.35;6.07;;;24.00;53.00;;;;;;5065877;28;45314;-70
2023/05/23 00:58:05;;;;;;;9.60;7.13;;;23.90;52.90;;;;;;5066100;28;45300;-70
2023/05/23 01:00:32;;;;;;;7.35;5.80;;;23.90;52.90;;;;;;5065631;28;46361;-70
2023/05/23 01:03:00;;;;;;;10.13;6.78;;;23.90;53.00;;;;;;5065494;28;45574;-70
2023/05/23 01:05:26;;;;;;;7.10;6.05;;;23.80;53.00;;;;;;5065652;28;45278;-70
2023/05/23 01:07:54;;;;;;;9.75;6.63;;;23.80;53.00;;;;;;5065975;28;45438;-71
2023/05/23 01:10:23;;;;;;;9.20;6.43;;;23.80;53.70;;;;;;5065566;28;45336;-71
2023/05/23 01:12:56;;;;;;;9.48;6.00;;;23.80;53.10;;;;;;5065544;28;45370;-70
2023/05/23 01:15:25;;;;;;;8.45;6.22;;;23.80;53.20;;;;;;5065683;28;45305;-70
2023/05/23 01:17:55;;;;;;;7.60;6.00;;;23.80;53.10;;;;;;5065785;28;45315;-70
2023/05/23 01:20:22;;;;;;;8.88;6.03;;;23.80;53.00;;;;;;5065439;28;46681;-70
2023/05/23 01:23:04;;;;;;;7.72;6.13;;;23.80;53.10;;;;;;5065479;28;45315;-70
2023/05/23 01:25:45;;;;;;;7.47;5.85;;;23.80;53.70;;;;;;5065458;28;45115;-70
2023/05/23 01:28:16;;;;;;;8.68;5.85;;;23.80;53.10;;;;;;5063036;28;45265;-71
2023/05/23 01:30:44;;;;;;;8.43;6.05;;;23.70;53.00;;;;;;5065389;28;45491;-71
2023/05/23 01:33:11;;;;;;;7.65;5.68;;;23.70;53.00;;;;;;5065461;28;45279;-71
2023/05/23 01:35:38;;;;;;;7.45;6.00;;;23.70;53.00;;;;;;5065248;28;45469;-70
2023/05/23 01:38:05;;;;;;;7.13;5.90;;;23.70;53.10;;;;;;5065459;28;45329;-70
2023/05/23 01:40:32;;;;;;;6.35;5.75;;;23.70;53.00;;;;;;5065047;28;46316;-70
2023/05/23 01:42:59;;;;;;;6.78;5.60;;;23.70;53.00;;;;;;5065192;28;45338;-70
2023/05/23 01:45:27;;;;;;;6.60;5.93;;;23.70;53.00;;;;;;5065076;28;45374;-70
2023/05/23 01:47:54;;;;;;;6.97;6.00;;;23.70;53.00;;;;;;5065374;28;45454;-70
2023/05/23 01:50:21;;;;;;;7.57;6.05;;;23.70;53.00;;;;;;5064960;28;45303;-70
2023/05/23 01:52:48;;;;;;;6.78;5.88;;;23.60;53.00;;;;;;5065516;27;45281;-70
2023/05/23 01:55:17;;;;;;;7.43;5.93;;;23.60;53.10;;;;;;5065152;28;45342;-70
2023/05/23 01:57:44;;;;;;;8.30;5.70;;;23.60;53.10;;;;;;5062621;28;45320;-71
2023/05/23 02:00:13;;;;;;;8.05;5.60;;;23.60;53.10;;;;;;5064939;28;45482;-71
2023/05/23 02:02:41;;;;;;;7.03;5.82;;;23.60;53.30;;;;;;5064785;28;45411;-70
2023/05/23 02:05:10;;;;;;;6.78;5.78;;;23.60;53.20;;;;;;5065013;28;45250;-70
2023/05/23 02:07:36;;;;;;;6.70;5.63;;;23.60;53.20;;;;;;5065133;28;45305;-70
2023/05/23 02:10:03;;;;;;;6.78;5.60;;;23.60;53.20;;;;;;5064759;28;46647;-70
2023/05/23 02:12:30;;;;;;;7.85;5.90;;;23.60;53.20;;;;;;5064727;28;45323;-70
2023/05/23 02:14:57;;;;;;;7.10;5.75;;;23.60;53.20;;;;;;5064875;28;45308;-71
2023/05/23 02:17:24;;;;;;;6.05;5.45;;;23.50;53.20;;;;;;5067772;28;45312;-71
2023/05/23 02:19:52;;;;;;;7.15;5.40;;;23.50;53.20;;;;;;5068140;28;46760;-71
2023/05/23 02:22:23;;;;;;;7.75;5.65;;;23.50;53.20;;;;;;5068459;28;45483;-71
2023/05/23 02:24:50;;;;;;;5.93;5.32;;;23.50;53.30;;;;;;5068366;28;45230;-71
2023/05/23 02:27:17;;;;;;;6.05;5.45;;;23.50;53.80;;;;;;5068966;28;45434;-71
2023/05/23 02:29:43;;;;;;;6.43;5.38;;;23.50;53.20;;;;;;5068021;28;46387;-71
2023/05/23 02:32:10;;;;;;;6.70;5.93;;;23.50;53.30;;;;;;5068110;28;45372;-71
2023/05/23 02:34:38;;;;;;;5.93;5.32;;;23.50;53.30;;;;;;5068135;28;45336;-71
2023/05/23 02:37:06;;;;;;;6.57;5.88;;;23.50;53.40;;;;;;5068181;28;45346;-71
2023/05/23 02:39:35;;;;;;;6.55;5.53;;;23.50;53.30;;;;;;5067833;28;45490;-71
2023/05/23 02:42:02;;;;;;;6.10;5.50;;;23.50;53.30;;;;;;5067868;28;45423;-71
2023/05/23 02:44:28;;;;;;;7.07;5.80;;;23.50;53.40;;;;;;5068011;28;45304;-71
2023/05/23 02:46:55;;;;;;;6.40;5.57;;;23.40;53.40;;;;;;5068265;28;45284;-71
2023/05/23 02:49:22;;;;;;;6.03;5.43;;;23.50;53.40;;;;;;5067832;28;46628;-71
2023/05/23 02:51:49;;;;;;;5.97;5.15;;;23.40;53.40;;;;;;5067910;28;45314;-71
2023/05/23 02:54:17;;;;;;;6.97;5.28;;;23.40;53.50;;;;;;5067891;28;45380;-71
2023/05/23 02:56:44;;;;;;;7.22;5.45;;;23.40;53.50;;;;;;5068029;28;45250;-71
2023/05/23 02:59:12;;;;;;;5.93;5.28;;;23.40;53.40;;;;;;5067619;28;45272;-71
2023/05/23 03:01:39;;;;;;;7.63;5.70;;;23.40;53.50;;;;;;5067458;28;45355;-71
2023/05/23 03:04:06;;;;;;;5.72;5.15;;;23.40;54.00;;;;;;5067874;28;45454;-71
2023/05/23 03:06:35;;;;;;;5.78;5.03;;;23.40;53.50;;;;;;5068009;28;45255;-70
2023/05/23 03:09:02;;;;;;;6.30;5.70;;;23.40;53.50;;;;;;5067339;28;45350;-70
2023/05/23 03:11:30;;;;;;;6.70;5.45;;;23.40;53.50;;;;;;5067676;28;45386;-70
2023/05/23 03:13:57;;;;;;;8.30;5.85;;;23.30;53.40;;;;;;5067748;28;45400;-70
2023/05/23 03:16:24;;;;;;;5.60;5.10;;;23.30;53.40;;;;;;5067738;28;45444;-70
2023/05/23 03:18:51;;;;;;;7.18;5.25;;;23.30;53.40;;;;;;5067021;28;46402;-70
2023/05/23 03:21:17;;;;;;;6.80;6.05;;;23.30;53.50;;;;;;5067603;28;45407;-70
2023/05/23 03:23:44;;;;;;;6.78;5.55;;;23.30;53.50;;;;;;5067281;28;45337;-70
2023/05/23 03:26:11;;;;;;;5.72;5.15;;;23.30;53.50;;;;;;5067415;28;45408;-71
2023/05/23 03:28:39;;;;;;;6.00;5.30;;;23.30;53.60;;;;;;5065823;28;45427;-70
2023/05/23 03:31:06;;;;;;;6.00;5.18;;;23.20;53.60;;;;;;5067124;28;45333;-70
2023/05/23 03:33:33;;;;;;;6.00;5.25;;;23.20;53.60;;;;;;5067271;28;45506;-70
2023/05/23 03:36:00;;;;;;;5.38;4.72;;;23.20;53.70;;;;;;5067535;28;45330;-70
2023/05/23 03:38:27;;;;;;;5.80;5.20;;;23.20;53.70;;;;;;5066923;28;46692;-70
2023/05/23 03:40:54;;;;;;;5.53;5.00;;;23.20;53.80;;;;;;5066914;28;45372;-70
2023/05/23 03:43:21;;;;;;;6.18;5.50;;;23.20;53.70;;;;;;5067345;28;45323;-70
2023/05/23 03:45:49;;;;;;;5.47;4.95;;;23.20;53.80;;;;;;5067113;28;45467;-70
2023/05/23 03:48:16;;;;;;;6.13;5.53;;;23.20;53.80;;;;;;5066845;28;45758;-70
2023/05/23 03:50:43;;;;;;;6.22;5.60;;;23.10;53.70;;;;;;5066868;28;45257;-70
2023/05/23 03:53:10;;;;;;;5.60;5.10;;;23.10;53.80;;;;;;5066941;28;45365;-70
2023/05/23 03:55:36;;;;;;;7.57;5.90;;;23.10;53.90;;;;;;5067257;28;45338;-69
2023/05/23 03:58:03;;;;;;;5.78;5.07;;;23.10;53.90;;;;;;5066603;28;46399;-70
2023/05/23 04:00:30;;;;;;;5.20;4.70;;;23.10;53.90;;;;;;5066648;28;45300;-70
2023/05/23 04:02:58;;;;;;;7.07;5.65;;;23.10;53.90;;;;;;5066361;28;45402;-70
2023/05/23 04:05:25;;;;;;;5.15;4.65;;;23.10;53.90;;;;;;5066913;28;45300;-70
2023/05/23 04:07:52;;;;;;;6.70;5.28;;;23.00;53.80;;;;;;5066485;28;46490;-70
2023/05/23 04:10:19;;;;;;;5.53;5.03;;;23.00;53.90;;;;;;5066434;28;45340;-70
2023/05/23 04:12:46;;;;;;;6.07;5.45;;;23.00;53.90;;;;;;5066660;28;45509;-70
2023/05/23 04:15:13;;;;;;;5.80;4.80;;;23.00;53.90;;;;;;5066676;28;45354;-70
2023/05/23 04:17:40;;;;;;;7.20;5.43;;;23.00;53.90;;;;;;5066243;28;46412;-70
2023/05/23 04:20:09;;;;;;;5.93;5.35;;;23.00;54.00;;;;;;5066362;28;45257;-70
2023/05/23 04:22:36;;;;;;;5.60;4.85;;;23.00;54.00;;;;;;5066584;28;45355;-70
2023/05/23 04:25:04;;;;;;;6.15;5.38;;;23.00;53.90;;;;;;5066506;28;45317;-69
2023/05/23 04:27:30;;;;;;;5.82;4.85;;;23.00;53.90;;;;;;5066218;28;46355;-69
2023/05/23 04:29:59;;;;;;;5.57;4.97;;;23.00;53.90;;;;;;5066463;28;45657;-69
2023/05/23 04:32:26;;;;;;;7.07;5.03;;;23.00;53.90;;;;;;5066456;28;45307;-70
2023/05/23 04:34:53;;;;;;;5.93;5.32;;;23.00;53.90;;;;;;5066557;28;45491;-70
2023/05/23 04:37:24;;;;;;;6.40;5.53;;;23.00;53.90;;;;;;5065853;28;45305;-70
2023/05/23 04:39:52;;;;;;;6.13;4.93;;;23.00;53.90;;;;;;5065573;28;45311;-69
2023/05/23 04:42:23;;;;;;;5.70;5.13;;;23.00;53.90;;;;;;5066298;28;45375;-69
2023/05/23 04:44:50;;;;;;;5.63;5.13;;;23.00;53.90;;;;;;5066019;28;45435;-69
2023/05/23 04:47:16;;;;;;;5.80;5.20;;;23.00;54.30;;;;;;5065779;28;45401;-69
2023/05/23 04:49:43;;;;;;;6.28;5.15;;;23.00;54.00;;;;;;5065911;28;45328;-70
2023/05/23 04:52:10;;;;;;;5.68;4.97;;;23.00;54.00;;;;;;5066071;28;45279;-70
2023/05/23 04:54:43;;;;;;;5.40;4.90;;;23.00;54.60;;;;;;5066153;28;45280;-72
2023/05/23 04:57:11;;;;;;;6.32;5.72;;;23.00;54.00;;;;;;5066030;28;47449;-71
2023/05/23 04:59:38;;;;;;;5.78;5.18;;;23.00;54.00;;;;;;5065643;28;45306;-71
2023/05/23 05:02:05;;;;;;;6.03;5.43;;;23.00;54.50;;;;;;5065743;28;45329;-71
2023/05/23 05:04:32;;;;;;;5.85;5.20;;;23.00;54.00;;;;;;5065926;28;45558;-70
2023/05/23 05:06:59;;;;;;;5.60;5.00;;;23.00;54.00;;;;;;5065544;28;45532;-70
2023/05/23 05:09:26;;;;;;;5.18;4.25;;;23.00;54.00;;;;;;5065603;28;45324;-70
2023/05/23 05:11:54;;;;;;;6.50;5.32;;;23.00;54.00;;;;;;5065678;28;45323;-71
2023/05/23 05:14:21;;;;;;;5.75;5.03;;;23.00;54.00;;;;;;5065839;28;45238;-70
2023/05/23 05:16:49;;;;;;;5.85;5.25;;;23.00;54.00;;;;;;5065289;28;46390;-70
2023/05/23 05:19:16;;;;;;;6.07;5.47;;;23.00;54.00;;;;;;5065614;28;45358;-71
2023/05/23 05:21:42;;;;;;;6.00;5.38;;;23.00;54.10;;;;;;5065949;28;45369;-70
2023/05/23 05:24:09;;;;;;;6.57;5.50;;;23.00;54.10;;;;;;5065788;28;45324;-70
2023/05/23 05:26:36;;;;;;;6.63;5.28;;;23.00;54.10;;;;;;5065263;28;45630;-70
2023/05/23 05:29:05;;;;;;;7.07;5.20;;;23.00;54.10;;;;;;5065234;28;45348;-70
2023/05/23 05:31:32;;;;;;;6.38;5.25;;;22.90;54.70;;;;;;5065759;28;45273;-70
2023/05/23 05:33:58;;;;;;;6.47;5.25;;;23.00;54.10;;;;;;5065595;28;45435;-70
2023/05/23 05:36:25;;;;;;;5.90;5.30;;;23.00;54.10;;;;;;5065155;28;47340;-70
2023/05/23 05:38:53;;;;;;;5.90;5.30;;;23.00;54.10;;;;;;5065101;28;45405;-70
2023/05/23 05:41:20;;;;;;;5.53;5.03;;;23.00;54.10;;;;;;5065394;28;45327;-70
2023/05/23 05:43:47;;;;;;;6.38;5.35;;;23.00;54.20;;;;;;5065418;28;45300;-70
2023/05/23 05:46:16;;;;;;;5.88;5.28;;;22.90;54.20;;;;;;5064937;28;46756;-70
2023/05/23 05:48:42;;;;;;;6.70;5.85;;;22.90;54.20;;;;;;5065049;28;45309;-71
2023/05/23 05:51:09;;;;;;;6.22;5.32;;;22.90;54.20;;;;;;5066158;28;45376;-69
2023/05/23 05:53:36;;;;;;;5.80;5.20;;;22.90;54.20;;;;;;5069163;28;45316;-71
2023/05/23 05:56:03;;;;;;;5.38;4.85;;;22.90;54.30;;;;;;5068557;28;45360;-70
2023/05/23 05:58:30;;;;;;;6.28;5.53;;;22.90;54.30;;;;;;5068602;28;45426;-70
2023/05/23 06:00:57;;;;;;;7.07;6.32;;;22.90;54.30;;;;;;5068373;28;45355;-71
2023/05/23 06:03:26;;;;;;;6.40;5.72;;;22.90;54.30;;;;;;5068782;28;45384;-70
2023/05/23 06:05:53;;;;;;;6.38;5.78;;;22.90;54.40;;;;;;5068681;28;45272;-70
2023/05/23 06:08:20;;;;;;;6.65;5.60;;;22.90;54.40;;;;;;5068667;28;45457;-71
2023/05/23 06:10:46;;;;;;;6.43;5.70;;;22.90;54.40;;;;;;5068612;28;45373;-70
2023/05/23 06:13:13;;;;;;;6.03;5.43;;;22.90;54.40;;;;;;5068877;28;45458;-70
2023/05/23 06:15:40;;;;;;;6.70;6.00;;;22.90;55.00;;;;;;5068144;28;45228;-70
2023/05/23 06:18:07;;;;;;;6.40;5.70;;;22.90;54.40;;;;;;5068216;28;45442;-70
2023/05/23 06:20:35;;;;;;;6.40;5.63;;;22.90;54.40;;;;;;5068260;28;45321;-70
2023/05/23 06:23:04;;;;;;;6.57;5.70;;;22.90;54.40;;;;;;5068296;28;45253;-70
2023/05/23 06:25:31;;;;;;;6.57;5.85;;;22.90;54.50;;;;;;5067981;28;46855;-70
2023/05/23 06:27:58;;;;;;;6.05;5.45;;;22.90;54.50;;;;;;5067954;28;45151;-70
2023/05/23 06:30:25;;;;;;;6.40;5.47;;;22.90;54.50;;;;;;5068328;28;45451;-70
2023/05/23 06:32:51;;;;;;;7.15;6.13;;;22.90;54.50;;;;;;5068247;28;45463;-70
2023/05/23 06:35:18;;;;;;;6.97;5.50;;;22.90;54.50;;;;;;5067820;28;45322;-70
2023/05/23 06:37:47;;;;;;;6.40;5.80;;;22.90;54.50;;;;;;5067711;28;45268;-69
2023/05/23 06:40:14;;;;;;;6.18;5.57;;;22.90;54.50;;;;;;5067853;28;45364;-70
2023/05/23 06:42:41;;;;;;;6.78;5.68;;;22.90;54.50;;;;;;5068011;28;45619;-70
2023/05/23 06:45:09;;;;;;;6.05;5.28;;;22.90;54.50;;;;;;5067538;28;45321;-70
2023/05/23 06:47:35;;;;;;;5.80;5.30;;;22.90;54.50;;;;;;5067607;28;45334;-71
2023/05/23 06:50:02;;;;;;;6.38;5.78;;;22.90;54.40;;;;;;5067803;28;45307;-70
2023/05/23 06:52:29;;;;;;;6.18;5.57;;;22.90;54.40;;;;;;5067846;28;45288;-70
2023/05/23 06:54:57;;;;;;;6.35;5.75;;;22.90;54.40;;;;;;5067423;28;45552;-70
2023/05/23 06:57:24;;;;;;;6.00;5.40;;;22.90;54.40;;;;;;5067398;28;45431;-70
2023/05/23 06:59:51;;;;;;;6.78;5.78;;;22.90;54.40;;;;;;5067503;28;45315;-70
2023/05/23 07:02:18;;;;;;;6.07;5.47;;;22.90;54.30;;;;;;5067251;28;45495;-69
2023/05/23 07:04:45;;;;;;;8.23;5.75;;;22.90;54.40;;;;;;5067266;28;45479;-69
2023/05/23 07:07:11;;;;;;;8.85;6.35;;;22.90;54.40;;;;;;5067215;28;45438;-70
2023/05/23 07:09:38;;;;;;;6.40;5.80;;;22.90;54.40;;;;;;5067539;28;45449;-70
2023/05/23 07:12:07;;;;;;;6.40;5.80;;;22.90;54.40;;;;;;5067643;28;45383;-70
2023/05/23 07:14:34;;;;;;;6.68;5.68;;;22.90;54.40;;;;;;5067279;28;46450;-70
2023/05/23 07:17:01;;;;;;;6.90;5.78;;;22.90;54.50;;;;;;5067094;28;45416;-71
2023/05/23 07:19:28;;;;;;;6.35;5.72;;;22.90;54.40;;;;;;5067342;28;45416;-70
2023/05/23 07:21:55;;;;;;;6.78;5.75;;;22.90;55.00;;;;;;5067550;28;45555;-70
2023/05/23 07:24:22;;;;;;;7.47;6.68;;;22.90;54.40;;;;;;5066901;28;46740;-70
2023/05/23 07:26:48;;;;;;;6.88;5.82;;;22.90;54.50;;;;;;5067128;28;45245;-69
2023/05/23 07:29:17;;;;;;;6.97;6.18;;;23.00;54.50;;;;;;5067203;28;45253;-71
2023/05/23 07:31:43;;;;;;;6.70;6.00;;;22.90;54.40;;;;;;5067392;28;45291;-70
2023/05/23 07:34:10;;;;;;;7.03;6.20;;;23.00;54.50;;;;;;5067021;28;46406;-70
2023/05/23 07:36:39;;;;;;;6.47;5.78;;;23.00;54.50;;;;;;5067142;28;45315;-71
2023/05/23 07:39:06;;;;;;;6.65;6.05;;;23.00;54.50;;;;;;5067327;28;45391;-71
2023/05/23 07:41:33;;;;;;;8.85;6.60;;;23.00;54.50;;;;;;5067152;28;45376;-70
2023/05/23 07:44:00;;;;;;;7.15;6.50;;;23.00;54.50;;;;;;5066985;28;45314;-70
2023/05/23 07:46:28;;;;;;;6.63;5.93;;;23.00;54.40;;;;;;5066915;28;45372;-70
2023/05/23 07:48:55;;;;;;;6.97;6.20;;;23.00;54.30;;;;;;5067037;28;45364;-70
2023/05/23 07:51:22;;;;;;;6.80;5.97;;;23.10;54.30;;;;;;5067469;28;45347;-71
2023/05/23 07:53:49;;;;;;;6.40;5.70;;;23.10;54.20;;;;;;5066636;28;46732;-71
2023/05/23 07:56:17;;;;;;;6.80;6.10;;;23.10;54.10;;;;;;5066852;28;45316;-70
2023/05/23 07:58:43;;;;;;;6.82;6.13;;;23.10;54.10;;;;;;5067059;28;45332;-71
2023/05/23 08:01:10;;;;;;;6.95;5.82;;;23.20;54.00;;;;;;5066710;28;45424;-70
2023/05/23 08:03:38;;;;;;;5.90;5.30;;;23.20;54.50;;;;;;5066495;28;47579;-71
2023/05/23 08:06:06;;;;;;;6.65;5.95;;;23.20;53.90;;;;;;5066485;28;45459;-70
2023/05/23 08:08:33;;;;;;;7.30;6.50;;;23.20;53.80;;;;;;5066574;28;45262;-70
2023/05/23 08:11:00;;;;;;;6.78;5.78;;;23.20;53.90;;;;;;5066396;28;45376;-71
2023/05/23 08:13:27;;;;;;;7.30;5.85;;;23.20;53.90;;;;;;5065369;28;46675;-70
2023/05/23 08:15:54;;;;;;;7.15;6.03;;;23.20;54.00;;;;;;5066273;28;45419;-71
2023/05/23 08:18:20;;;;;;;7.93;6.20;;;23.20;54.10;;;;;;5062078;28;45501;-71
2023/05/23 08:20:49;;;;;;;8.38;5.82;;;23.20;54.70;;;;;;5057716;28;45205;-70
2023/05/23 08:23:16;;;;;;;7.15;6.45;;;23.20;54.10;;;;;;5052685;28;46593;-71
2023/05/23 08:25:43;;;;;;;7.25;6.53;;;23.20;54.30;;;;;;5046162;28;45273;-70
2023/05/23 08:28:10;;;;;;;7.75;6.65;;;23.20;54.70;;;;;;5065696;28;45420;-70
2023/05/23 08:30:37;;;;;;;8.88;7.22;;;23.20;54.30;;;;;;5066879;28;45460;-70
2023/05/23 08:33:05;;;;;;;7.18;6.47;;;23.20;54.40;;;;;;5066408;28;46272;-71
2023/05/23 08:35:35;;;;;;;7.57;6.80;;;23.30;54.40;;;;;;5066704;28;45316;-70
2023/05/23 08:38:04;;;;;;;9.93;7.18;;;23.30;54.40;;;;;;5066811;28;45291;-71
2023/05/23 08:40:31;;;;;;;8.80;7.18;;;23.30;54.40;;;;;;5066449;28;45195;-70
2023/05/23 08:42:58;;;;;;;8.13;6.75;;;23.30;54.50;;;;;;5066424;28;45280;-72
2023/05/23 08:45:25;;;;;;;7.60;6.80;;;23.30;54.50;;;;;;5066247;28;45399;-70
2023/05/23 08:47:52;;;;;;;8.80;7.22;;;23.30;54.50;;;;;;5066764;28;45216;-71
2023/05/23 08:50:19;;;;;;;8.52;6.80;;;23.30;54.50;;;;;;5066761;28;45436;-71
2023/05/23 08:52:50;;;;;;;8.23;7.32;;;23.40;54.50;;;;;;5066153;28;46437;-70
2023/05/23 08:55:18;;;;;;;8.70;7.60;;;23.40;54.50;;;;;;5066127;28;45261;-70
2023/05/23 08:57:45;;;;;;;8.40;7.45;;;23.40;54.50;;;;;;5066445;28;45188;-70
2023/05/23 09:00:14;;;;;;;8.20;7.28;;;23.40;54.50;;;;;;5066460;28;45415;-71
2023/05/23 09:02:41;;;;;;;10.07;7.97;;;23.40;54.50;;;;;;5065789;28;46522;-70
2023/05/23 09:05:09;;;;;;;9.13;7.53;;;23.40;54.50;;;;;;5065984;28;45265;-71
2023/05/23 09:07:36;;;;;;;8.80;7.72;;;23.40;54.50;;;;;;5066264;28;45252;-70
2023/05/23 09:10:03;;;;;;;9.15;8.15;;;23.50;54.50;;;;;;5066140;28;45491;-70
2023/05/23 09:12:32;;;;;;;8.43;7.50;;;23.50;54.50;;;;;;5065898;28;45510;-70
2023/05/23 09:14:59;;;;;;;10.45;8.40;;;23.50;54.50;;;;;;5065864;28;45143;-70
2023/05/23 09:17:25;;;;;;;11.35;7.90;;;23.50;54.50;;;;;;5065911;28;45180;-70
2023/05/23 09:19:52;;;;;;;8.68;7.80;;;23.50;54.40;;;;;;5066122;28;45376;-70
2023/05/23 09:22:24;;;;;;;8.77;7.85;;;23.60;54.30;;;;;;5065615;28;45284;-70
2023/05/23 09:24:51;;;;;;;8.65;7.15;;;23.60;54.30;;;;;;5065723;28;45227;-70
2023/05/23 09:27:18;;;;;;;9.45;8.02;;;23.60;54.20;;;;;;5065869;28;45303;-70
2023/05/23 09:29:47;;;;;;;8.57;7.72;;;23.60;54.10;;;;;;5065922;28;45562;-71
2023/05/23 09:32:16;;;;;;;11.30;9.43;;;23.60;54.10;;;;;;5065371;28;45484;-70
2023/05/23 09:34:42;;;;;;;10.52;8.63;;;23.60;54.30;;;;;;5065579;28;45242;-69
2023/05/23 09:37:17;;;;;;;11.30;8.65;;;23.70;54.30;;;;;;5065547;28;45347;-69
2023/05/23 09:39:46;;;;;;;8.65;7.63;;;23.70;54.20;;;;;;5065718;28;45404;-70
2023/05/23 09:42:13;;;;;;;12.38;8.50;;;23.70;54.30;;;;;;5065213;28;46371;-70
2023/05/23 09:44:41;;;;;;;9.55;8.23;;;23.70;54.30;;;;;;5065439;28;45245;-70
2023/05/23 09:47:10;;;;;;;9.07;8.18;;;23.70;54.20;;;;;;5065379;28;45351;-70
2023/05/23 09:49:39;;;;;;;11.18;7.78;;;23.70;54.20;;;;;;5065845;28;45295;-70
2023/05/23 09:52:06;;;;;;;9.23;8.32;;;23.80;54.20;;;;;;5065114;28;45273;-70
2023/05/23 09:54:33;;;;;;;9.23;8.18;;;23.80;54.20;;;;;;5065354;28;45349;-70
2023/05/23 09:57:00;;;;;;;10.07;8.50;;;23.80;54.10;;;;;;5065515;28;45299;-70
2023/05/23 09:59:27;;;;;;;10.10;8.57;;;23.80;54.00;;;;;;5065543;28;45438;-70
2023/05/23 10:01:54;;;;;;;8.93;8.02;;;23.90;54.00;;;;;;5064893;28;45232;-71
2023/05/23 10:04:23;;;;;;;10.02;8.77;;;23.90;53.90;;;;;;5065242;28;45197;-71
2023/05/23 10:06:52;;;;;;;10.82;8.68;;;23.90;53.90;;;;;;5065638;28;45463;-70
2023/05/23 10:09:21;;;;;;;10.48;9.00;;;23.90;53.80;;;;;;5065435;28;45237;-70
2023/05/23 10:12:29;;;;;;;9.38;8.32;;;24.00;54.00;;;;;;5064945;28;45540;-70
2023/05/23 10:14:58;;;;;;;9.93;8.60;;;24.00;53.80;;;;;;5065315;28;45395;-69
2023/05/23 10:17:31;;;;;;;10.65;8.52;;;24.00;53.90;;;;;;5065087;28;45406;-70
2023/05/23 10:20:07;;;;;;;11.95;8.88;;;24.00;53.90;;;;;;5058765;28;45202;-69
2023/05/23 10:22:34;;;;;;;10.00;8.43;;;24.00;53.90;;;;;;5065104;28;46664;-69
2023/05/23 10:25:01;;;;;;;9.27;8.02;;;24.00;53.90;;;;;;5066799;27;45435;-70
2023/05/23 10:27:28;;;;;;;8.88;7.90;;;24.00;53.90;;;;;;5064932;28;45407;-69
2023/05/23 10:29:54;;;;;;;12.52;8.63;;;24.00;53.90;;;;;;5065181;28;45364;-70
2023/05/23 10:32:22;;;;;;;11.63;8.60;;;24.00;53.90;;;;;;5064916;28;45288;-70
2023/05/23 10:34:54;;;;;;;9.43;8.13;;;24.10;53.80;;;;;;5064878;28;45274;-70
2023/05/23 10:37:24;;;;;;;11.70;8.35;;;24.10;53.80;;;;;;5066132;28;45315;-70
2023/05/23 10:39:57;;;;;;;8.52;7.60;;;24.20;53.80;;;;;;5068883;28;45194;-70
2023/05/23 10:42:31;;;;;;;9.32;8.27;;;24.20;53.80;;;;;;5054698;28;46397;-71
2023/05/23 10:45:19;;;;;;;8.73;7.72;;;24.20;53.70;;;;;;5069242;28;45190;-70
2023/05/23 10:47:47;;;;;;;8.70;7.85;;;24.20;53.70;;;;;;5067712;28;45372;-70
2023/05/23 10:50:14;;;;;;;10.68;8.18;;;24.20;53.60;;;;;;5068470;28;45392;-69
2023/05/23 10:52:42;;;;;;;9.73;8.40;;;24.30;53.60;;;;;;5067988;28;45466;-69
2023/05/23 10:55:16;;;;;;;9.10;7.60;;;24.30;53.60;;;;;;5068166;28;45336;-69
2023/05/23 10:57:43;;;;;;;9.23;8.07;;;24.30;53.60;;;;;;5068258;28;45288;-69
2023/05/23 11:00:14;;;;;;;9.20;8.30;;;24.40;53.60;;;;;;5068557;28;45197;-69
2023/05/23 11:02:47;;;;;;;10.32;8.48;;;24.40;53.60;;;;;;5067854;28;47439;-69
2023/05/23 11:05:26;;;;;;;9.70;8.50;;;24.40;53.60;;;;;;5068025;28;45348;-69
2023/05/23 11:08:12;;;;;;;10.15;8.30;;;24.40;53.60;;;;;;5068317;28;45361;-69
2023/05/23 11:10:59;;;;;;;9.27;8.35;;;24.50;53.50;;;;;;5068252;28;45442;-70
2023/05/23 11:13:26;;;;;;;9.00;8.10;;;24.50;53.40;;;;;;5067987;28;46492;-69
2023/05/23 11:15:53;;;;;;;8.80;7.90;;;24.60;53.50;;;;;;5067878;28;45319;-68
2023/05/23 11:18:21;;;;;;;8.80;7.90;;;24.60;53.40;;;;;;5067669;28;45373;-68
2023/05/23 11:20:49;;;;;;;12.25;8.77;;;24.70;53.40;;;;;;5067139;28;45233;-71
2023/05/23 11:23:18;;;;;;;9.48;7.95;;;24.70;53.20;;;;;;5067472;28;45451;-68
2023/05/23 11:25:45;;;;;;;9.13;8.32;;;24.70;53.20;;;;;;5067607;28;45244;-68
2023/05/23 11:28:12;;;;;;;11.07;8.30;;;24.80;53.20;;;;;;5067873;28;45260;-69
2023/05/23 11:30:39;;;;;;;9.65;8.75;;;24.80;53.10;;;;;;5067957;28;45305;-68
2023/05/23 11:33:12;;;;;;;10.18;8.60;;;24.90;53.10;;;;;;5067503;28;45488;-68
2023/05/23 11:35:39;;;;;;;9.70;8.70;;;24.90;53.20;;;;;;5067305;28;45232;-69
2023/05/23 11:38:06;;;;;;;11.20;8.32;;;24.90;53.20;;;;;;5067656;28;45275;-70
2023/05/23 11:40:35;;;;;;;11.38;8.45;;;25.00;53.00;;;;;;5067517;28;45363;-69
2023/05/23 11:43:03;;;;;;;11.48;8.70;;;25.00;53.00;;;;;;5067381;28;45315;-69
2023/05/23 11:45:31;;;;;;;10.75;8.25;;;25.10;52.90;;;;;;5067280;28;45365;-69
2023/05/23 11:47:57;;;;;;;9.82;8.18;;;25.10;52.90;;;;;;5067064;28;45301;-68
2023/05/23 11:50:24;;;;;;;10.00;8.32;;;25.20;53.00;;;;;;5066887;28;45362;-68
2023/05/23 11:52:51;;;;;;;10.45;8.43;;;25.20;53.00;;;;;;5067132;28;46364;-71
2023/05/23 11:55:19;;;;;;;11.25;8.45;;;25.20;52.90;;;;;;5067386;28;45193;-69
2023/05/23 11:57:47;;;;;;;10.80;8.48;;;25.30;52.90;;;;;;5067328;28;45231;-69
2023/05/23 12:00:15;;;;;;;11.23;8.55;;;25.30;52.90;;;;;;5067441;28;45305;-69
2023/05/23 12:02:42;;;;;;;8.82;7.93;;;25.30;52.80;;;;;;5066284;28;46426;-69
2023/05/23 12:05:10;;;;;;;9.18;8.00;;;25.40;52.80;;;;;;5066878;28;45147;-69
2023/05/23 12:07:40;;;;;;;8.80;7.90;;;25.40;52.50;;;;;;5066874;28;45434;-70
2023/05/23 12:10:09;;;;;;;10.02;8.38;;;25.50;52.50;;;;;;5067170;28;45612;-70
2023/05/23 12:12:36;;;;;;;8.85;7.95;;;25.50;52.50;;;;;;5067069;28;45291;-70
2023/05/23 12:15:05;;;;;;;9.48;8.55;;;25.50;52.40;;;;;;5067139;28;45231;-69
2023/05/23 12:17:31;;;;;;;12.25;8.35;;;25.60;52.40;;;;;;5067035;28;45345;-70
2023/05/23 12:19:58;;;;;;;8.80;7.63;;;25.60;52.40;;;;;;5067409;28;45232;-70
2023/05/23 12:22:25;;;;;;;10.88;7.65;;;25.60;52.30;;;;;;5066797;28;46716;-70
2023/05/23 12:24:53;;;;;;;9.52;8.38;;;25.70;52.40;;;;;;5066829;28;45138;-70
2023/05/23 12:27:20;;;;;;;9.98;8.40;;;25.70;52.30;;;;;;5067004;28;45315;-69
2023/05/23 12:29:51;;;;;;;9.43;8.43;;;25.80;52.20;;;;;;5067102;28;45645;-70
2023/05/23 12:32:19;;;;;;;11.00;8.82;;;25.80;52.10;;;;;;5066688;28;45478;-70
2023/05/23 12:34:45;;;;;;;8.73;7.43;;;25.80;52.10;;;;;;5066752;28;45260;-69
2023/05/23 12:37:13;;;;;;;8.95;8.05;;;25.90;52.10;;;;;;5066860;28;45288;-69
2023/05/23 12:39:40;;;;;;;8.30;7.50;;;25.90;52.00;;;;;;5066912;28;45220;-69
2023/05/23 12:42:10;;;;;;;8.93;8.02;;;26.00;52.00;;;;;;5066511;28;46595;-69
2023/05/23 12:44:36;;;;;;;10.02;7.63;;;26.00;51.90;;;;;;5066586;28;45378;-69
2023/05/23 12:47:03;;;;;;;9.40;7.63;;;26.00;51.80;;;;;;5066271;28;45333;-70
2023/05/23 12:49:32;;;;;;;8.95;7.95;;;26.10;51.70;;;;;;5066715;28;45404;-71